sensor_id;sensor_type;location;lat;lon;timestamp;P1;durP1;ratioP1;P2;durP2;ratioP2
53521;SDS011;39398;48.382;9.802;2024-02-23T00:04:48;1.85;;;0.50;;
53521;SDS011;39398;48.382;9.802;2024-02-23T00:09:51;0.68;;;0.40;;
53521;SDS011;39398;48.382;9.802;2024-02-23T00:14:53;0.80;;;0.40;;
53521;SDS011;39398;48.382;9.802;2024-02-23T00:19:54;0.40;;;0.40;;
53521;SDS011;39398;48.382;9.802;2024-02-23T00:24:57;0.50;;;0.50;;
53521;SDS011;39398;48.382;9.802;2024-02-23T00:29:59;0.50;;;0.50;;
53521;SDS011;39398;48.382;9.802;2024-02-23T00:35:01;0.40;;;0.40;;
53521;SDS011;39398;48.382;9.802;2024-02-23T00:40:04;0.60;;;0.50;;
53521;SDS011;39398;48.382;9.802;2024-02-23T00:45:07;0.30;;;0.30;;
53521;SDS011;39398;48.382;9.802;2024-02-23T00:50:09;0.50;;;0.47;;
53521;SDS011;39398;48.382;9.802;2024-02-23T00:55:12;0.30;;;0.30;;
53521;SDS011;39398;48.382;9.802;2024-02-23T01:00:14;0.40;;;0.40;;
53521;SDS011;39398;48.382;9.802;2024-02-23T01:05:16;0.30;;;0.30;;
53521;SDS011;39398;48.382;9.802;2024-02-23T01:10:19;0.50;;;0.50;;
53521;SDS011;39398;48.382;9.802;2024-02-23T01:15:21;0.40;;;0.40;;
53521;SDS011;39398;48.382;9.802;2024-02-23T01:20:23;1.30;;;0.32;;
53521;SDS011;39398;48.382;9.802;2024-02-23T01:25:25;0.30;;;0.30;;
53521;SDS011;39398;48.382;9.802;2024-02-23T01:30:27;0.40;;;0.40;;
53521;SDS011;39398;48.382;9.802;2024-02-23T01:35:29;0.40;;;0.40;;
53521;SDS011;39398;48.382;9.802;2024-02-23T01:40:32;0.40;;;0.40;;
53521;SDS011;39398;48.382;9.802;2024-02-23T01:45:33;0.82;;;0.50;;
53521;SDS011;39398;48.382;9.802;2024-02-23T01:50:35;0.50;;;0.50;;
53521;SDS011;39398;48.382;9.802;2024-02-23T01:55:39;0.50;;;0.50;;
53521;SDS011;39398;48.382;9.802;2024-02-23T02:00:42;0.40;;;0.40;;
53521;SDS011;39398;48.382;9.802;2024-02-23T02:05:43;0.50;;;0.50;;
53521;SDS011;39398;48.382;9.802;2024-02-23T02:10:46;1.45;;;0.50;;
53521;SDS011;39398;48.382;9.802;2024-02-23T02:15:48;0.50;;;0.50;;
53521;SDS011;39398;48.382;9.802;2024-02-23T02:20:50;0.47;;;0.47;;
53521;SDS011;39398;48.382;9.802;2024-02-23T02:25:56;0.40;;;0.40;;
53521;SDS011;39398;48.382;9.802;2024-02-23T02:30:58;0.47;;;0.47;;
53521;SDS011;39398;48.382;9.802;2024-02-23T02:36:00;0.80;;;0.40;;
53521;SDS011;39398;48.382;9.802;2024-02-23T02:41:03;0.50;;;0.50;;
53521;SDS011;39398;48.382;9.802;2024-02-23T02:46:05;1.27;;;0.50;;
53521;SDS011;39398;48.382;9.802;2024-02-23T02:51:07;0.40;;;0.40;;
53521;SDS011;39398;48.382;9.802;2024-02-23T02:56:10;1.45;;;0.50;;
53521;SDS011;39398;48.382;9.802;2024-02-23T03:01:11;0.57;;;0.55;;
53521;SDS011;39398;48.382;9.802;2024-02-23T03:06:13;0.93;;;0.50;;
53521;SDS011;39398;48.382;9.802;2024-02-23T03:11:16;0.60;;;0.55;;
53521;SDS011;39398;48.382;9.802;2024-02-23T03:16:18;1.90;;;0.50;;
53521;SDS011;39398;48.382;9.802;2024-02-23T03:21:20;0.73;;;0.57;;
53521;SDS011;39398;48.382;9.802;2024-02-23T03:26:23;0.40;;;0.40;;
53521;SDS011;39398;48.382;9.802;2024-02-23T03:31:24;4.18;;;0.50;;
53521;SDS011;39398;48.382;9.802;2024-02-23T03:36:26;0.40;;;0.40;;
53521;SDS011;39398;48.382;9.802;2024-02-23T03:41:29;0.45;;;0.45;;
53521;SDS011;39398;48.382;9.802;2024-02-23T03:46:31;0.70;;;0.63;;
53521;SDS011;39398;48.382;9.802;2024-02-23T03:51:32;0.75;;;0.50;;
53521;SDS011;39398;48.382;9.802;2024-02-23T03:56:38;1.92;;;0.60;;
53521;SDS011;39398;48.382;9.802;2024-02-23T04:01:40;0.85;;;0.50;;
53521;SDS011;39398;48.382;9.802;2024-02-23T04:06:42;0.73;;;0.50;;
53521;SDS011;39398;48.382;9.802;2024-02-23T04:11:46;0.50;;;0.50;;
53521;SDS011;39398;48.382;9.802;2024-02-23T04:16:48;0.50;;;0.50;;
53521;SDS011;39398;48.382;9.802;2024-02-23T04:21:50;0.65;;;0.60;;
53521;SDS011;39398;48.382;9.802;2024-02-23T04:26:53;0.57;;;0.57;;
53521;SDS011;39398;48.382;9.802;2024-02-23T04:31:54;0.55;;;0.50;;
53521;SDS011;39398;48.382;9.802;2024-02-23T04:36:56;1.35;;;0.60;;
53521;SDS011;39398;48.382;9.802;2024-02-23T04:41:59;0.80;;;0.80;;
53521;SDS011;39398;48.382;9.802;2024-02-23T04:47:00;1.38;;;0.60;;
53521;SDS011;39398;48.382;9.802;2024-02-23T04:52:02;1.15;;;0.63;;
53521;SDS011;39398;48.382;9.802;2024-02-23T04:57:05;1.25;;;0.80;;
53521;SDS011;39398;48.382;9.802;2024-02-23T05:02:07;0.88;;;0.82;;
53521;SDS011;39398;48.382;9.802;2024-02-23T05:07:09;7.53;;;5.57;;
53521;SDS011;39398;48.382;9.802;2024-02-23T05:12:12;2.63;;;1.17;;
53521;SDS011;39398;48.382;9.802;2024-02-23T05:17:13;3.45;;;1.30;;
53521;SDS011;39398;48.382;9.802;2024-02-23T05:22:15;7.80;;;6.88;;
53521;SDS011;39398;48.382;9.802;2024-02-23T05:27:18;1.50;;;1.40;;
53521;SDS011;39398;48.382;9.802;2024-02-23T05:32:19;2.13;;;0.80;;
53521;SDS011;39398;48.382;9.802;2024-02-23T05:37:21;5.40;;;1.15;;
53521;SDS011;39398;48.382;9.802;2024-02-23T05:42:24;3.03;;;1.50;;
53521;SDS011;39398;48.382;9.802;2024-02-23T05:47:25;1.55;;;0.70;;
53521;SDS011;39398;48.382;9.802;2024-02-23T05:52:27;0.68;;;0.68;;
53521;SDS011;39398;48.382;9.802;2024-02-23T05:57:30;1.45;;;1.02;;
53521;SDS011;39398;48.382;9.802;2024-02-23T06:02:31;2.47;;;1.10;;
53521;SDS011;39398;48.382;9.802;2024-02-23T06:07:33;1.75;;;1.30;;
53521;SDS011;39398;48.382;9.802;2024-02-23T06:12:36;2.10;;;1.30;;
53521;SDS011;39398;48.382;9.802;2024-02-23T06:17:38;1.58;;;1.48;;
53521;SDS011;39398;48.382;9.802;2024-02-23T06:22:39;2.15;;;1.40;;
53521;SDS011;39398;48.382;9.802;2024-02-23T06:27:42;3.53;;;1.60;;
53521;SDS011;39398;48.382;9.802;2024-02-23T06:32:44;3.28;;;2.22;;
53521;SDS011;39398;48.382;9.802;2024-02-23T06:37:46;3.40;;;2.65;;
53521;SDS011;39398;48.382;9.802;2024-02-23T06:42:49;2.15;;;1.95;;
53521;SDS011;39398;48.382;9.802;2024-02-23T06:47:51;2.83;;;1.90;;
53521;SDS011;39398;48.382;9.802;2024-02-23T06:52:53;1.80;;;1.70;;
53521;SDS011;39398;48.382;9.802;2024-02-23T06:57:56;2.33;;;2.08;;
53521;SDS011;39398;48.382;9.802;2024-02-23T07:02:57;1.88;;;1.67;;
53521;SDS011;39398;48.382;9.802;2024-02-23T07:08:00;1.65;;;1.55;;
53521;SDS011;39398;48.382;9.802;2024-02-23T07:13:03;3.00;;;1.60;;
53521;SDS011;39398;48.382;9.802;2024-02-23T07:18:07;1.70;;;1.60;;
53521;SDS011;39398;48.382;9.802;2024-02-23T07:23:09;3.38;;;1.45;;
53521;SDS011;39398;48.382;9.802;2024-02-23T07:28:12;1.55;;;1.42;;
53521;SDS011;39398;48.382;9.802;2024-02-23T07:33:14;2.67;;;1.50;;
53521;SDS011;39398;48.382;9.802;2024-02-23T07:38:16;1.63;;;1.50;;
53521;SDS011;39398;48.382;9.802;2024-02-23T07:43:18;3.65;;;1.67;;
53521;SDS011;39398;48.382;9.802;2024-02-23T07:48:20;3.88;;;2.15;;
53521;SDS011;39398;48.382;9.802;2024-02-23T07:53:22;2.05;;;1.70;;
53521;SDS011;39398;48.382;9.802;2024-02-23T07:58:25;3.60;;;1.50;;
53521;SDS011;39398;48.382;9.802;2024-02-23T08:03:26;2.95;;;1.27;;
53521;SDS011;39398;48.382;9.802;2024-02-23T08:08:28;3.90;;;1.67;;
53521;SDS011;39398;48.382;9.802;2024-02-23T08:13:31;3.17;;;1.40;;
53521;SDS011;39398;48.382;9.802;2024-02-23T08:18:32;4.75;;;1.63;;
53521;SDS011;39398;48.382;9.802;2024-02-23T08:23:34;2.45;;;1.10;;
53521;SDS011;39398;48.382;9.802;2024-02-23T08:28:37;2.35;;;1.23;;
53521;SDS011;39398;48.382;9.802;2024-02-23T08:33:39;2.88;;;1.30;;
53521;SDS011;39398;48.382;9.802;2024-02-23T08:38:41;5.07;;;1.35;;
53521;SDS011;39398;48.382;9.802;2024-02-23T08:43:44;3.13;;;1.27;;
53521;SDS011;39398;48.382;9.802;2024-02-23T08:48:46;3.03;;;1.42;;
53521;SDS011;39398;48.382;9.802;2024-02-23T08:53:48;2.90;;;1.27;;
53521;SDS011;39398;48.382;9.802;2024-02-23T08:58:51;5.40;;;1.80;;
53521;SDS011;39398;48.382;9.802;2024-02-23T09:03:52;2.33;;;1.27;;
53521;SDS011;39398;48.382;9.802;2024-02-23T09:08:54;4.07;;;1.48;;
53521;SDS011;39398;48.382;9.802;2024-02-23T09:13:57;2.83;;;1.15;;
53521;SDS011;39398;48.382;9.802;2024-02-23T09:18:59;5.35;;;1.30;;
53521;SDS011;39398;48.382;9.802;2024-02-23T09:24:00;6.50;;;1.52;;
53521;SDS011;39398;48.382;9.802;2024-02-23T09:29:03;3.00;;;1.20;;
53521;SDS011;39398;48.382;9.802;2024-02-23T09:34:05;5.22;;;1.35;;
53521;SDS011;39398;48.382;9.802;2024-02-23T09:39:07;3.35;;;1.20;;
53521;SDS011;39398;48.382;9.802;2024-02-23T09:44:09;3.70;;;1.05;;
53521;SDS011;39398;48.382;9.802;2024-02-23T09:49:11;12.27;;;2.20;;
53521;SDS011;39398;48.382;9.802;2024-02-23T09:54:13;3.80;;;1.40;;
53521;SDS011;39398;48.382;9.802;2024-02-23T09:59:19;5.47;;;1.33;;
53521;SDS011;39398;48.382;9.802;2024-02-23T10:04:20;7.68;;;1.27;;
53521;SDS011;39398;48.382;9.802;2024-02-23T10:09:22;5.93;;;1.55;;
53521;SDS011;39398;48.382;9.802;2024-02-23T10:14:25;4.57;;;1.30;;
53521;SDS011;39398;48.382;9.802;2024-02-23T10:19:26;4.38;;;1.23;;
53521;SDS011;39398;48.382;9.802;2024-02-23T10:24:28;2.90;;;1.40;;
53521;SDS011;39398;48.382;9.802;2024-02-23T10:29:31;8.05;;;1.20;;
53521;SDS011;39398;48.382;9.802;2024-02-23T10:34:33;5.53;;;1.23;;
53521;SDS011;39398;48.382;9.802;2024-02-23T10:39:38;3.22;;;1.15;;
53521;SDS011;39398;48.382;9.802;2024-02-23T10:44:42;3.28;;;1.23;;
53521;SDS011;39398;48.382;9.802;2024-02-23T10:49:44;7.70;;;1.52;;
53521;SDS011;39398;48.382;9.802;2024-02-23T10:54:47;5.68;;;1.50;;
53521;SDS011;39398;48.382;9.802;2024-02-23T10:59:51;6.05;;;1.50;;
53521;SDS011;39398;48.382;9.802;2024-02-23T11:04:53;9.15;;;1.60;;
53521;SDS011;39398;48.382;9.802;2024-02-23T11:09:58;7.22;;;1.55;;
53521;SDS011;39398;48.382;9.802;2024-02-23T11:15:01;6.53;;;1.50;;
53521;SDS011;39398;48.382;9.802;2024-02-23T11:20:03;4.07;;;1.30;;
53521;SDS011;39398;48.382;9.802;2024-02-23T11:25:07;7.93;;;2.80;;
53521;SDS011;39398;48.382;9.802;2024-02-23T11:30:11;6.93;;;2.03;;
53521;SDS011;39398;48.382;9.802;2024-02-23T11:35:13;13.38;;;1.73;;
53521;SDS011;39398;48.382;9.802;2024-02-23T11:40:17;8.98;;;2.38;;
53521;SDS011;39398;48.382;9.802;2024-02-23T11:45:20;4.32;;;1.50;;
53521;SDS011;39398;48.382;9.802;2024-02-23T11:50:22;7.05;;;1.60;;
53521;SDS011;39398;48.382;9.802;2024-02-23T11:55:23;7.78;;;1.50;;
53521;SDS011;39398;48.382;9.802;2024-02-23T12:00:27;6.55;;;1.70;;
53521;SDS011;39398;48.382;9.802;2024-02-23T12:05:28;12.18;;;3.00;;
53521;SDS011;39398;48.382;9.802;2024-02-23T12:10:30;5.20;;;1.60;;
53521;SDS011;39398;48.382;9.802;2024-02-23T12:15:33;5.35;;;2.17;;
53521;SDS011;39398;48.382;9.802;2024-02-23T12:20:35;14.63;;;7.55;;
53521;SDS011;39398;48.382;9.802;2024-02-23T12:25:37;8.63;;;1.77;;
53521;SDS011;39398;48.382;9.802;2024-02-23T12:30:44;7.82;;;1.52;;
53521;SDS011;39398;48.382;9.802;2024-02-23T12:35:46;6.22;;;1.85;;
53521;SDS011;39398;48.382;9.802;2024-02-23T12:40:47;5.18;;;1.55;;
53521;SDS011;39398;48.382;9.802;2024-02-23T12:45:50;6.78;;;1.30;;
53521;SDS011;39398;48.382;9.802;2024-02-23T12:50:52;5.57;;;1.80;;
53521;SDS011;39398;48.382;9.802;2024-02-23T12:55:53;3.55;;;1.10;;
53521;SDS011;39398;48.382;9.802;2024-02-23T13:00:56;6.13;;;1.70;;
53521;SDS011;39398;48.382;9.802;2024-02-23T13:05:59;8.77;;;3.85;;
53521;SDS011;39398;48.382;9.802;2024-02-23T13:11:01;6.82;;;1.75;;
53521;SDS011;39398;48.382;9.802;2024-02-23T13:16:05;6.90;;;1.48;;
53521;SDS011;39398;48.382;9.802;2024-02-23T13:21:07;5.13;;;1.48;;
53521;SDS011;39398;48.382;9.802;2024-02-23T13:26:09;2.63;;;1.30;;
53521;SDS011;39398;48.382;9.802;2024-02-23T13:31:13;6.38;;;1.50;;
53521;SDS011;39398;48.382;9.802;2024-02-23T13:36:15;3.47;;;1.65;;
53521;SDS011;39398;48.382;9.802;2024-02-23T13:41:17;5.10;;;1.40;;
53521;SDS011;39398;48.382;9.802;2024-02-23T13:46:20;5.00;;;1.73;;
53521;SDS011;39398;48.382;9.802;2024-02-23T13:51:21;7.50;;;3.38;;
53521;SDS011;39398;48.382;9.802;2024-02-23T13:56:23;7.10;;;2.75;;
53521;SDS011;39398;48.382;9.802;2024-02-23T14:01:29;7.55;;;4.07;;
53521;SDS011;39398;48.382;9.802;2024-02-23T14:06:31;4.13;;;2.30;;
53521;SDS011;39398;48.382;9.802;2024-02-23T14:11:33;5.05;;;2.35;;
53521;SDS011;39398;48.382;9.802;2024-02-23T14:16:36;6.38;;;1.88;;
53521;SDS011;39398;48.382;9.802;2024-02-23T14:21:37;2.63;;;1.50;;
53521;SDS011;39398;48.382;9.802;2024-02-23T14:26:39;5.25;;;1.27;;
53521;SDS011;39398;48.382;9.802;2024-02-23T14:31:42;5.07;;;1.95;;
53521;SDS011;39398;48.382;9.802;2024-02-23T14:36:44;3.90;;;2.10;;
53521;SDS011;39398;48.382;9.802;2024-02-23T14:41:45;11.82;;;5.07;;
53521;SDS011;39398;48.382;9.802;2024-02-23T14:46:48;4.43;;;2.13;;
53521;SDS011;39398;48.382;9.802;2024-02-23T14:51:50;5.40;;;2.03;;
53521;SDS011;39398;48.382;9.802;2024-02-23T14:56:52;8.63;;;3.33;;
53521;SDS011;39398;48.382;9.802;2024-02-23T15:01:54;8.60;;;3.45;;
53521;SDS011;39398;48.382;9.802;2024-02-23T15:06:56;8.38;;;4.13;;
53521;SDS011;39398;48.382;9.802;2024-02-23T15:11:58;7.10;;;2.38;;
53521;SDS011;39398;48.382;9.802;2024-02-23T15:17:01;5.13;;;1.70;;
53521;SDS011;39398;48.382;9.802;2024-02-23T15:22:02;5.07;;;1.90;;
53521;SDS011;39398;48.382;9.802;2024-02-23T15:27:04;3.90;;;1.50;;
53521;SDS011;39398;48.382;9.802;2024-02-23T15:32:08;3.78;;;1.73;;
53521;SDS011;39398;48.382;9.802;2024-02-23T15:37:09;8.25;;;2.15;;
53521;SDS011;39398;48.382;9.802;2024-02-23T15:42:11;2.20;;;1.60;;
53521;SDS011;39398;48.382;9.802;2024-02-23T15:47:14;7.22;;;2.33;;
53521;SDS011;39398;48.382;9.802;2024-02-23T15:52:16;5.88;;;1.90;;
53521;SDS011;39398;48.382;9.802;2024-02-23T15:57:17;7.90;;;3.20;;
53521;SDS011;39398;48.382;9.802;2024-02-23T16:02:20;6.82;;;2.22;;
53521;SDS011;39398;48.382;9.802;2024-02-23T16:07:22;6.53;;;2.63;;
53521;SDS011;39398;48.382;9.802;2024-02-23T16:12:24;9.48;;;5.60;;
53521;SDS011;39398;48.382;9.802;2024-02-23T16:17:27;7.72;;;3.92;;
53521;SDS011;39398;48.382;9.802;2024-02-23T16:22:29;9.50;;;4.35;;
53521;SDS011;39398;48.382;9.802;2024-02-23T16:27:31;8.10;;;3.05;;
53521;SDS011;39398;48.382;9.802;2024-02-23T16:32:34;6.28;;;3.22;;
53521;SDS011;39398;48.382;9.802;2024-02-23T16:37:35;4.20;;;2.35;;
53521;SDS011;39398;48.382;9.802;2024-02-23T16:42:37;8.68;;;2.08;;
53521;SDS011;39398;48.382;9.802;2024-02-23T16:47:40;4.28;;;1.85;;
53521;SDS011;39398;48.382;9.802;2024-02-23T16:52:42;7.30;;;2.10;;
53521;SDS011;39398;48.382;9.802;2024-02-23T16:57:44;5.82;;;2.72;;
53521;SDS011;39398;48.382;9.802;2024-02-23T17:02:46;9.65;;;3.10;;
53521;SDS011;39398;48.382;9.802;2024-02-23T17:07:48;3.60;;;2.45;;
53521;SDS011;39398;48.382;9.802;2024-02-23T17:12:50;7.80;;;3.67;;
53521;SDS011;39398;48.382;9.802;2024-02-23T17:17:53;13.00;;;4.90;;
53521;SDS011;39398;48.382;9.802;2024-02-23T17:22:54;4.72;;;3.30;;
53521;SDS011;39398;48.382;9.802;2024-02-23T17:27:56;14.82;;;8.60;;
53521;SDS011;39398;48.382;9.802;2024-02-23T17:32:59;13.43;;;7.78;;
53521;SDS011;39398;48.382;9.802;2024-02-23T17:38:01;7.43;;;4.10;;
53521;SDS011;39398;48.382;9.802;2024-02-23T17:43:03;9.27;;;4.97;;
53521;SDS011;39398;48.382;9.802;2024-02-23T17:48:06;7.43;;;4.00;;
53521;SDS011;39398;48.382;9.802;2024-02-23T17:53:07;18.27;;;7.10;;
53521;SDS011;39398;48.382;9.802;2024-02-23T17:58:09;9.40;;;4.72;;
53521;SDS011;39398;48.382;9.802;2024-02-23T18:03:22;7.38;;;3.10;;
53521;SDS011;39398;48.382;9.802;2024-02-23T18:08:23;7.78;;;3.00;;
53521;SDS011;39398;48.382;9.802;2024-02-23T18:13:25;15.43;;;6.07;;
53521;SDS011;39398;48.382;9.802;2024-02-23T18:18:27;10.48;;;3.90;;
53521;SDS011;39398;48.382;9.802;2024-02-23T18:23:29;4.75;;;2.08;;
53521;SDS011;39398;48.382;9.802;2024-02-23T18:28:31;8.82;;;1.98;;
53521;SDS011;39398;48.382;9.802;2024-02-23T18:33:34;4.13;;;1.90;;
53521;SDS011;39398;48.382;9.802;2024-02-23T18:38:35;3.40;;;1.75;;
53521;SDS011;39398;48.382;9.802;2024-02-23T18:43:37;2.10;;;1.58;;
53521;SDS011;39398;48.382;9.802;2024-02-23T18:48:40;16.45;;;9.90;;
53521;SDS011;39398;48.382;9.802;2024-02-23T18:53:41;5.80;;;1.95;;
53521;SDS011;39398;48.382;9.802;2024-02-23T18:58:43;4.68;;;2.78;;
53521;SDS011;39398;48.382;9.802;2024-02-23T19:03:46;5.75;;;2.80;;
53521;SDS011;39398;48.382;9.802;2024-02-23T19:08:47;5.00;;;3.70;;
53521;SDS011;39398;48.382;9.802;2024-02-23T19:13:49;28.25;;;13.63;;
53521;SDS011;39398;48.382;9.802;2024-02-23T19:18:52;54.90;;;29.00;;
53521;SDS011;39398;48.382;9.802;2024-02-23T19:23:54;19.25;;;10.52;;
53521;SDS011;39398;48.382;9.802;2024-02-23T19:28:55;14.40;;;7.80;;
53521;SDS011;39398;48.382;9.802;2024-02-23T19:33:58;8.38;;;5.45;;
53521;SDS011;39398;48.382;9.802;2024-02-23T19:39:00;10.48;;;5.80;;
53521;SDS011;39398;48.382;9.802;2024-02-23T19:44:01;18.20;;;10.85;;
53521;SDS011;39398;48.382;9.802;2024-02-23T19:49:04;10.25;;;5.10;;
53521;SDS011;39398;48.382;9.802;2024-02-23T19:54:06;6.15;;;3.08;;
53521;SDS011;39398;48.382;9.802;2024-02-23T19:59:07;7.95;;;3.70;;
53521;SDS011;39398;48.382;9.802;2024-02-23T20:04:11;7.10;;;3.38;;
53521;SDS011;39398;48.382;9.802;2024-02-23T20:09:13;9.90;;;4.15;;
53521;SDS011;39398;48.382;9.802;2024-02-23T20:14:14;5.65;;;3.83;;
53521;SDS011;39398;48.382;9.802;2024-02-23T20:19:17;4.05;;;2.97;;
53521;SDS011;39398;48.382;9.802;2024-02-23T20:24:19;6.72;;;3.30;;
53521;SDS011;39398;48.382;9.802;2024-02-23T20:29:21;5.95;;;3.92;;
53521;SDS011;39398;48.382;9.802;2024-02-23T20:34:24;8.55;;;5.03;;
53521;SDS011;39398;48.382;9.802;2024-02-23T20:39:25;9.02;;;3.60;;
53521;SDS011;39398;48.382;9.802;2024-02-23T20:44:27;7.88;;;5.50;;
53521;SDS011;39398;48.382;9.802;2024-02-23T20:49:30;7.75;;;4.43;;
53521;SDS011;39398;48.382;9.802;2024-02-23T20:54:32;10.48;;;5.32;;
53521;SDS011;39398;48.382;9.802;2024-02-23T20:59:33;7.75;;;3.35;;
53521;SDS011;39398;48.382;9.802;2024-02-23T21:04:36;5.80;;;3.20;;
53521;SDS011;39398;48.382;9.802;2024-02-23T21:09:38;7.25;;;4.28;;
53521;SDS011;39398;48.382;9.802;2024-02-23T21:14:40;8.88;;;4.75;;
53521;SDS011;39398;48.382;9.802;2024-02-23T21:19:43;10.43;;;6.05;;
53521;SDS011;39398;48.382;9.802;2024-02-23T21:24:45;9.38;;;5.50;;
53521;SDS011;39398;48.382;9.802;2024-02-23T21:29:46;11.07;;;5.43;;
53521;SDS011;39398;48.382;9.802;2024-02-23T21:34:49;13.60;;;7.57;;
53521;SDS011;39398;48.382;9.802;2024-02-23T21:39:51;23.23;;;10.27;;
53521;SDS011;39398;48.382;9.802;2024-02-23T21:44:52;101.93;;;34.95;;
53521;SDS011;39398;48.382;9.802;2024-02-23T21:49:55;72.55;;;27.65;;
53521;SDS011;39398;48.382;9.802;2024-02-23T21:54:57;16.33;;;8.05;;
53521;SDS011;39398;48.382;9.802;2024-02-23T21:59:58;26.45;;;11.55;;
53521;SDS011;39398;48.382;9.802;2024-02-23T22:05:01;27.23;;;11.18;;
53521;SDS011;39398;48.382;9.802;2024-02-23T22:10:03;22.25;;;9.90;;
53521;SDS011;39398;48.382;9.802;2024-02-23T22:15:06;17.30;;;7.32;;
53521;SDS011;39398;48.382;9.802;2024-02-23T22:20:10;12.30;;;6.65;;
53521;SDS011;39398;48.382;9.802;2024-02-23T22:25:12;11.55;;;5.00;;
53521;SDS011;39398;48.382;9.802;2024-02-23T22:30:13;13.77;;;5.30;;
53521;SDS011;39398;48.382;9.802;2024-02-23T22:35:16;10.85;;;4.70;;
53521;SDS011;39398;48.382;9.802;2024-02-23T22:40:18;9.35;;;3.42;;
53521;SDS011;39398;48.382;9.802;2024-02-23T22:45:19;8.50;;;3.00;;
53521;SDS011;39398;48.382;9.802;2024-02-23T22:50:23;8.25;;;3.17;;
53521;SDS011;39398;48.382;9.802;2024-02-23T22:55:24;7.22;;;3.85;;
53521;SDS011;39398;48.382;9.802;2024-02-23T23:00:26;7.50;;;3.80;;
53521;SDS011;39398;48.382;9.802;2024-02-23T23:05:29;5.03;;;2.50;;
53521;SDS011;39398;48.382;9.802;2024-02-23T23:10:31;4.05;;;2.90;;
53521;SDS011;39398;48.382;9.802;2024-02-23T23:15:32;6.70;;;2.80;;
53521;SDS011;39398;48.382;9.802;2024-02-23T23:20:35;5.85;;;2.95;;
53521;SDS011;39398;48.382;9.802;2024-02-23T23:25:37;6.47;;;2.60;;
53521;SDS011;39398;48.382;9.802;2024-02-23T23:30:38;4.07;;;2.55;;
53521;SDS011;39398;48.382;9.802;2024-02-23T23:35:41;4.40;;;3.25;;
53521;SDS011;39398;48.382;9.802;2024-02-23T23:40:43;6.07;;;2.70;;
53521;SDS011;39398;48.382;9.802;2024-02-23T23:45:45;6.60;;;3.10;;
53521;SDS011;39398;48.382;9.802;2024-02-23T23:50:48;7.72;;;3.17;;
53521;SDS011;39398;48.382;9.802;2024-02-23T23:55:49;4.25;;;3.10;;
